sensor_id;sensor_type;location;lat;lon;timestamp;P1;durP1;ratioP1;P2;durP2;ratioP2
10090;SDS011;5084;51.386;6.778;2022-12-18T00:02:16;7.93;;;6.10;;
10090;SDS011;5084;51.386;6.778;2022-12-18T00:04:42;6.73;;;5.40;;
10090;SDS011;5084;51.386;6.778;2022-12-18T00:07:09;8.97;;;6.00;;
10090;SDS011;5084;51.386;6.778;2022-12-18T00:09:35;7.73;;;6.10;;
10090;SDS011;5084;51.386;6.778;2022-12-18T00:12:01;8.30;;;6.53;;
10090;SDS011;5084;51.386;6.778;2022-12-18T00:14:27;8.73;;;5.90;;
10090;SDS011;5084;51.386;6.778;2022-12-18T00:17:00;7.93;;;5.17;;
10090;SDS011;5084;51.386;6.778;2022-12-18T00:19:26;8.90;;;5.57;;
10090;SDS011;5084;51.386;6.778;2022-12-18T00:21:52;7.63;;;5.50;;
10090;SDS011;5084;51.386;6.778;2022-12-18T00:24:18;5.90;;;5.20;;
10090;SDS011;5084;51.386;6.778;2022-12-18T00:26:44;5.77;;;4.57;;
10090;SDS011;5084;51.386;6.778;2022-12-18T00:29:11;7.63;;;5.77;;
10090;SDS011;5084;51.386;6.778;2022-12-18T00:31:39;6.73;;;4.83;;
10090;SDS011;5084;51.386;6.778;2022-12-18T00:34:05;6.50;;;5.17;;
10090;SDS011;5084;51.386;6.778;2022-12-18T00:36:32;5.97;;;4.43;;
10090;SDS011;5084;51.386;6.778;2022-12-18T00:38:59;6.83;;;4.40;;
10090;SDS011;5084;51.386;6.778;2022-12-18T00:41:26;6.47;;;4.10;;
10090;SDS011;5084;51.386;6.778;2022-12-18T00:44:12;4.50;;;3.97;;
10090;SDS011;5084;51.386;6.778;2022-12-18T00:46:38;4.87;;;4.27;;
10090;SDS011;5084;51.386;6.778;2022-12-18T00:49:04;5.10;;;4.30;;
10090;SDS011;5084;51.386;6.778;2022-12-18T00:51:30;7.33;;;4.17;;
10090;SDS011;5084;51.386;6.778;2022-12-18T00:53:56;5.80;;;4.47;;
10090;SDS011;5084;51.386;6.778;2022-12-18T00:56:23;4.67;;;3.53;;
10090;SDS011;5084;51.386;6.778;2022-12-18T00:58:49;6.37;;;4.43;;
10090;SDS011;5084;51.386;6.778;2022-12-18T01:01:15;4.27;;;3.63;;
10090;SDS011;5084;51.386;6.778;2022-12-18T01:03:42;5.50;;;4.43;;
10090;SDS011;5084;51.386;6.778;2022-12-18T01:06:10;4.53;;;3.30;;
10090;SDS011;5084;51.386;6.778;2022-12-18T01:08:40;5.17;;;3.93;;
10090;SDS011;5084;51.386;6.778;2022-12-18T01:11:07;4.37;;;3.97;;
10090;SDS011;5084;51.386;6.778;2022-12-18T01:13:33;5.80;;;3.83;;
10090;SDS011;5084;51.386;6.778;2022-12-18T01:15:59;4.17;;;3.23;;
10090;SDS011;5084;51.386;6.778;2022-12-18T01:18:29;6.70;;;4.40;;
10090;SDS011;5084;51.386;6.778;2022-12-18T01:20:55;4.37;;;3.27;;
10090;SDS011;5084;51.386;6.778;2022-12-18T01:23:21;4.07;;;3.20;;
10090;SDS011;5084;51.386;6.778;2022-12-18T01:25:48;4.80;;;3.40;;
10090;SDS011;5084;51.386;6.778;2022-12-18T01:28:14;4.07;;;3.27;;
10090;SDS011;5084;51.386;6.778;2022-12-18T01:30:40;4.60;;;3.63;;
10090;SDS011;5084;51.386;6.778;2022-12-18T01:33:06;4.53;;;3.73;;
10090;SDS011;5084;51.386;6.778;2022-12-18T01:35:32;3.87;;;3.43;;
10090;SDS011;5084;51.386;6.778;2022-12-18T01:38:01;4.73;;;3.20;;
10090;SDS011;5084;51.386;6.778;2022-12-18T01:40:27;5.37;;;3.63;;
10090;SDS011;5084;51.386;6.778;2022-12-18T01:42:53;5.13;;;3.70;;
10090;SDS011;5084;51.386;6.778;2022-12-18T01:45:26;4.03;;;3.40;;
10090;SDS011;5084;51.386;6.778;2022-12-18T01:47:54;5.00;;;3.53;;
10090;SDS011;5084;51.386;6.778;2022-12-18T01:50:24;3.93;;;3.53;;
10090;SDS011;5084;51.386;6.778;2022-12-18T01:53:07;3.70;;;2.87;;
10090;SDS011;5084;51.386;6.778;2022-12-18T01:55:40;4.80;;;3.30;;
10090;SDS011;5084;51.386;6.778;2022-12-18T01:58:12;6.23;;;3.83;;
10090;SDS011;5084;51.386;6.778;2022-12-18T02:00:38;4.47;;;2.90;;
10090;SDS011;5084;51.386;6.778;2022-12-18T02:03:05;5.53;;;3.60;;
10090;SDS011;5084;51.386;6.778;2022-12-18T02:15:42;4.40;;;3.13;;
10090;SDS011;5084;51.386;6.778;2022-12-18T02:18:14;4.10;;;3.33;;
10090;SDS011;5084;51.386;6.778;2022-12-18T02:20:45;5.37;;;3.40;;
10090;SDS011;5084;51.386;6.778;2022-12-18T02:28:23;5.43;;;3.70;;
10090;SDS011;5084;51.386;6.778;2022-12-18T02:30:51;6.67;;;3.83;;
10090;SDS011;5084;51.386;6.778;2022-12-18T02:33:19;5.40;;;3.60;;
10090;SDS011;5084;51.386;6.778;2022-12-18T02:35:45;4.63;;;3.10;;
10090;SDS011;5084;51.386;6.778;2022-12-18T02:38:12;6.00;;;3.87;;
10090;SDS011;5084;51.386;6.778;2022-12-18T02:40:40;4.17;;;3.53;;
10090;SDS011;5084;51.386;6.778;2022-12-18T02:43:10;3.90;;;2.90;;
10090;SDS011;5084;51.386;6.778;2022-12-18T02:45:45;4.17;;;3.13;;
10090;SDS011;5084;51.386;6.778;2022-12-18T02:48:12;5.63;;;3.37;;
10090;SDS011;5084;51.386;6.778;2022-12-18T02:50:40;3.43;;;3.07;;
10090;SDS011;5084;51.386;6.778;2022-12-18T02:58:25;4.07;;;2.63;;
10090;SDS011;5084;51.386;6.778;2022-12-18T03:00:54;4.40;;;3.30;;
10090;SDS011;5084;51.386;6.778;2022-12-18T03:03:26;4.23;;;3.23;;
10090;SDS011;5084;51.386;6.778;2022-12-18T03:06:00;5.63;;;3.63;;
10090;SDS011;5084;51.386;6.778;2022-12-18T03:08:28;6.23;;;4.00;;
10090;SDS011;5084;51.386;6.778;2022-12-18T03:10:59;5.67;;;3.20;;
10090;SDS011;5084;51.386;6.778;2022-12-18T03:13:46;6.17;;;3.63;;
10090;SDS011;5084;51.386;6.778;2022-12-18T03:16:15;5.60;;;3.40;;
10090;SDS011;5084;51.386;6.778;2022-12-18T03:21:12;4.17;;;3.20;;
10090;SDS011;5084;51.386;6.778;2022-12-18T03:23:40;5.27;;;3.53;;
10090;SDS011;5084;51.386;6.778;2022-12-18T03:26:10;4.93;;;3.30;;
10090;SDS011;5084;51.386;6.778;2022-12-18T03:28:38;4.77;;;3.43;;
10090;SDS011;5084;51.386;6.778;2022-12-18T03:31:05;4.47;;;3.57;;
10090;SDS011;5084;51.386;6.778;2022-12-18T03:33:47;5.57;;;3.43;;
10090;SDS011;5084;51.386;6.778;2022-12-18T03:36:16;3.93;;;3.20;;
10090;SDS011;5084;51.386;6.778;2022-12-18T03:38:42;5.87;;;3.77;;
10090;SDS011;5084;51.386;6.778;2022-12-18T03:41:11;5.23;;;3.33;;
10090;SDS011;5084;51.386;6.778;2022-12-18T03:46:29;5.73;;;3.97;;
10090;SDS011;5084;51.386;6.778;2022-12-18T03:49:00;4.73;;;3.73;;
10090;SDS011;5084;51.386;6.778;2022-12-18T03:51:39;6.00;;;3.93;;
10090;SDS011;5084;51.386;6.778;2022-12-18T03:54:08;4.33;;;3.23;;
10090;SDS011;5084;51.386;6.778;2022-12-18T03:56:38;4.30;;;3.03;;
10090;SDS011;5084;51.386;6.778;2022-12-18T03:59:05;3.57;;;3.27;;
10090;SDS011;5084;51.386;6.778;2022-12-18T04:01:38;5.40;;;3.40;;
10090;SDS011;5084;51.386;6.778;2022-12-18T04:04:05;3.60;;;3.17;;
10090;SDS011;5084;51.386;6.778;2022-12-18T04:06:32;5.10;;;3.50;;
10090;SDS011;5084;51.386;6.778;2022-12-18T04:09:01;4.87;;;3.40;;
10090;SDS011;5084;51.386;6.778;2022-12-18T04:11:27;5.57;;;3.87;;
10090;SDS011;5084;51.386;6.778;2022-12-18T04:13:56;5.17;;;3.20;;
10090;SDS011;5084;51.386;6.778;2022-12-18T04:16:23;3.73;;;3.33;;
10090;SDS011;5084;51.386;6.778;2022-12-18T04:18:49;3.90;;;3.03;;
10090;SDS011;5084;51.386;6.778;2022-12-18T04:21:16;4.77;;;3.33;;
10090;SDS011;5084;51.386;6.778;2022-12-18T04:23:49;6.37;;;3.57;;
10090;SDS011;5084;51.386;6.778;2022-12-18T04:26:15;6.03;;;3.77;;
10090;SDS011;5084;51.386;6.778;2022-12-18T04:28:41;4.27;;;3.17;;
10090;SDS011;5084;51.386;6.778;2022-12-18T04:31:07;4.63;;;3.53;;
10090;SDS011;5084;51.386;6.778;2022-12-18T04:33:33;5.63;;;3.70;;
10090;SDS011;5084;51.386;6.778;2022-12-18T04:35:59;4.37;;;3.00;;
10090;SDS011;5084;51.386;6.778;2022-12-18T04:38:25;5.03;;;2.93;;
10090;SDS011;5084;51.386;6.778;2022-12-18T04:40:51;4.73;;;2.93;;
10090;SDS011;5084;51.386;6.778;2022-12-18T04:43:17;4.50;;;3.23;;
10090;SDS011;5084;51.386;6.778;2022-12-18T04:45:43;3.43;;;2.73;;
10090;SDS011;5084;51.386;6.778;2022-12-18T04:48:09;4.60;;;3.37;;
10090;SDS011;5084;51.386;6.778;2022-12-18T04:50:35;3.53;;;2.93;;
10090;SDS011;5084;51.386;6.778;2022-12-18T04:53:01;4.43;;;3.50;;
10090;SDS011;5084;51.386;6.778;2022-12-18T04:55:27;4.70;;;3.10;;
10090;SDS011;5084;51.386;6.778;2022-12-18T04:57:53;3.50;;;3.00;;
10090;SDS011;5084;51.386;6.778;2022-12-18T05:00:20;3.57;;;2.63;;
10090;SDS011;5084;51.386;6.778;2022-12-18T05:02:46;3.70;;;3.20;;
10090;SDS011;5084;51.386;6.778;2022-12-18T05:05:13;4.67;;;3.23;;
10090;SDS011;5084;51.386;6.778;2022-12-18T05:07:39;4.80;;;2.77;;
10090;SDS011;5084;51.386;6.778;2022-12-18T05:10:05;4.80;;;2.70;;
10090;SDS011;5084;51.386;6.778;2022-12-18T05:12:31;3.97;;;3.10;;
10090;SDS011;5084;51.386;6.778;2022-12-18T05:14:58;3.10;;;2.80;;
10090;SDS011;5084;51.386;6.778;2022-12-18T05:17:24;3.40;;;2.47;;
10090;SDS011;5084;51.386;6.778;2022-12-18T05:19:50;3.77;;;3.13;;
10090;SDS011;5084;51.386;6.778;2022-12-18T05:22:16;3.73;;;2.87;;
10090;SDS011;5084;51.386;6.778;2022-12-18T05:24:42;3.53;;;2.90;;
10090;SDS011;5084;51.386;6.778;2022-12-18T05:27:08;3.50;;;2.77;;
10090;SDS011;5084;51.386;6.778;2022-12-18T05:29:34;3.40;;;3.00;;
10090;SDS011;5084;51.386;6.778;2022-12-18T05:32:00;3.63;;;2.90;;
10090;SDS011;5084;51.386;6.778;2022-12-18T05:34:26;3.77;;;2.67;;
10090;SDS011;5084;51.386;6.778;2022-12-18T05:36:52;4.53;;;3.20;;
10090;SDS011;5084;51.386;6.778;2022-12-18T05:39:18;4.07;;;2.83;;
10090;SDS011;5084;51.386;6.778;2022-12-18T05:41:44;3.67;;;3.10;;
10090;SDS011;5084;51.386;6.778;2022-12-18T05:44:10;4.17;;;2.83;;
10090;SDS011;5084;51.386;6.778;2022-12-18T05:46:36;3.83;;;3.00;;
10090;SDS011;5084;51.386;6.778;2022-12-18T05:49:02;3.87;;;3.13;;
10090;SDS011;5084;51.386;6.778;2022-12-18T05:51:28;6.07;;;2.97;;
10090;SDS011;5084;51.386;6.778;2022-12-18T05:53:54;4.23;;;3.40;;
10090;SDS011;5084;51.386;6.778;2022-12-18T05:56:28;3.47;;;2.67;;
10090;SDS011;5084;51.386;6.778;2022-12-18T05:58:54;4.30;;;3.40;;
10090;SDS011;5084;51.386;6.778;2022-12-18T06:01:21;4.83;;;3.07;;
10090;SDS011;5084;51.386;6.778;2022-12-18T06:03:47;3.37;;;2.60;;
10090;SDS011;5084;51.386;6.778;2022-12-18T06:06:22;4.63;;;3.40;;
10090;SDS011;5084;51.386;6.778;2022-12-18T06:08:48;3.23;;;2.60;;
10090;SDS011;5084;51.386;6.778;2022-12-18T06:11:22;3.80;;;3.17;;
10090;SDS011;5084;51.386;6.778;2022-12-18T06:13:52;4.03;;;2.93;;
10090;SDS011;5084;51.386;6.778;2022-12-18T06:16:18;4.80;;;3.10;;
10090;SDS011;5084;51.386;6.778;2022-12-18T06:18:44;3.47;;;2.73;;
10090;SDS011;5084;51.386;6.778;2022-12-18T06:21:10;3.93;;;3.10;;
10090;SDS011;5084;51.386;6.778;2022-12-18T06:23:37;4.20;;;2.37;;
10090;SDS011;5084;51.386;6.778;2022-12-18T06:26:10;3.37;;;2.93;;
10090;SDS011;5084;51.386;6.778;2022-12-18T06:28:36;4.43;;;3.40;;
10090;SDS011;5084;51.386;6.778;2022-12-18T06:31:03;2.93;;;2.60;;
10090;SDS011;5084;51.386;6.778;2022-12-18T06:33:29;4.83;;;2.93;;
10090;SDS011;5084;51.386;6.778;2022-12-18T06:36:03;4.07;;;2.93;;
10090;SDS011;5084;51.386;6.778;2022-12-18T06:38:29;3.90;;;2.90;;
10090;SDS011;5084;51.386;6.778;2022-12-18T06:40:56;3.77;;;2.80;;
10090;SDS011;5084;51.386;6.778;2022-12-18T06:43:22;4.33;;;3.03;;
10090;SDS011;5084;51.386;6.778;2022-12-18T06:45:48;3.23;;;2.80;;
10090;SDS011;5084;51.386;6.778;2022-12-18T06:48:18;3.87;;;3.03;;
10090;SDS011;5084;51.386;6.778;2022-12-18T06:50:44;4.10;;;2.77;;
10090;SDS011;5084;51.386;6.778;2022-12-18T06:53:10;4.20;;;3.30;;
10090;SDS011;5084;51.386;6.778;2022-12-18T06:55:36;4.33;;;2.70;;
10090;SDS011;5084;51.386;6.778;2022-12-18T06:58:02;4.03;;;2.83;;
10090;SDS011;5084;51.386;6.778;2022-12-18T07:00:28;3.13;;;2.70;;
10090;SDS011;5084;51.386;6.778;2022-12-18T07:02:54;4.10;;;3.03;;
10090;SDS011;5084;51.386;6.778;2022-12-18T07:05:20;6.13;;;2.93;;
10090;SDS011;5084;51.386;6.778;2022-12-18T07:07:47;3.60;;;3.00;;
10090;SDS011;5084;51.386;6.778;2022-12-18T07:10:13;3.40;;;3.10;;
10090;SDS011;5084;51.386;6.778;2022-12-18T07:12:39;4.83;;;3.00;;
10090;SDS011;5084;51.386;6.778;2022-12-18T07:15:06;3.07;;;2.40;;
10090;SDS011;5084;51.386;6.778;2022-12-18T07:17:32;3.47;;;2.37;;
10090;SDS011;5084;51.386;6.778;2022-12-18T07:19:58;3.50;;;2.80;;
10090;SDS011;5084;51.386;6.778;2022-12-18T07:22:25;4.50;;;3.03;;
10090;SDS011;5084;51.386;6.778;2022-12-18T07:24:51;3.73;;;2.83;;
10090;SDS011;5084;51.386;6.778;2022-12-18T07:27:17;3.73;;;2.63;;
10090;SDS011;5084;51.386;6.778;2022-12-18T07:29:43;3.57;;;2.73;;
10090;SDS011;5084;51.386;6.778;2022-12-18T07:32:09;3.13;;;2.60;;
10090;SDS011;5084;51.386;6.778;2022-12-18T07:34:35;3.53;;;2.87;;
10090;SDS011;5084;51.386;6.778;2022-12-18T07:37:01;2.57;;;2.37;;
10090;SDS011;5084;51.386;6.778;2022-12-18T07:39:27;3.17;;;2.67;;
10090;SDS011;5084;51.386;6.778;2022-12-18T07:41:53;3.37;;;2.80;;
10090;SDS011;5084;51.386;6.778;2022-12-18T07:44:38;2.97;;;2.50;;
10090;SDS011;5084;51.386;6.778;2022-12-18T07:47:04;2.40;;;2.20;;
10090;SDS011;5084;51.386;6.778;2022-12-18T07:49:30;4.33;;;3.10;;
10090;SDS011;5084;51.386;6.778;2022-12-18T07:51:56;3.23;;;2.90;;
10090;SDS011;5084;51.386;6.778;2022-12-18T07:54:23;4.20;;;3.03;;
10090;SDS011;5084;51.386;6.778;2022-12-18T07:56:49;3.10;;;2.23;;
10090;SDS011;5084;51.386;6.778;2022-12-18T07:59:15;3.30;;;2.43;;
10090;SDS011;5084;51.386;6.778;2022-12-18T08:01:41;4.90;;;3.53;;
10090;SDS011;5084;51.386;6.778;2022-12-18T08:04:07;4.33;;;3.33;;
10090;SDS011;5084;51.386;6.778;2022-12-18T08:06:33;8.40;;;3.80;;
10090;SDS011;5084;51.386;6.778;2022-12-18T08:08:59;4.37;;;2.77;;
10090;SDS011;5084;51.386;6.778;2022-12-18T08:11:26;5.03;;;2.80;;
10090;SDS011;5084;51.386;6.778;2022-12-18T08:13:52;4.07;;;2.93;;
10090;SDS011;5084;51.386;6.778;2022-12-18T08:16:19;4.13;;;2.97;;
10090;SDS011;5084;51.386;6.778;2022-12-18T08:18:45;3.27;;;2.90;;
10090;SDS011;5084;51.386;6.778;2022-12-18T08:21:15;4.47;;;2.83;;
10090;SDS011;5084;51.386;6.778;2022-12-18T08:23:42;4.17;;;3.03;;
10090;SDS011;5084;51.386;6.778;2022-12-18T08:26:08;4.63;;;3.37;;
10090;SDS011;5084;51.386;6.778;2022-12-18T08:28:34;4.80;;;2.80;;
10090;SDS011;5084;51.386;6.778;2022-12-18T08:31:00;3.83;;;3.20;;
10090;SDS011;5084;51.386;6.778;2022-12-18T08:33:27;4.27;;;2.97;;
10090;SDS011;5084;51.386;6.778;2022-12-18T08:35:53;4.87;;;3.07;;
10090;SDS011;5084;51.386;6.778;2022-12-18T08:38:19;4.67;;;3.27;;
10090;SDS011;5084;51.386;6.778;2022-12-18T08:40:45;4.50;;;3.10;;
10090;SDS011;5084;51.386;6.778;2022-12-18T08:43:11;3.60;;;2.80;;
10090;SDS011;5084;51.386;6.778;2022-12-18T08:45:55;3.60;;;3.23;;
10090;SDS011;5084;51.386;6.778;2022-12-18T08:48:21;4.30;;;2.93;;
10090;SDS011;5084;51.386;6.778;2022-12-18T08:50:55;4.17;;;2.63;;
10090;SDS011;5084;51.386;6.778;2022-12-18T08:53:21;3.30;;;2.83;;
10090;SDS011;5084;51.386;6.778;2022-12-18T08:55:50;4.77;;;2.67;;
10090;SDS011;5084;51.386;6.778;2022-12-18T08:58:16;4.93;;;3.10;;
10090;SDS011;5084;51.386;6.778;2022-12-18T09:00:42;4.17;;;3.30;;
10090;SDS011;5084;51.386;6.778;2022-12-18T09:03:12;3.97;;;2.90;;
10090;SDS011;5084;51.386;6.778;2022-12-18T09:05:38;5.63;;;3.27;;
10090;SDS011;5084;51.386;6.778;2022-12-18T09:08:04;3.93;;;3.23;;
10090;SDS011;5084;51.386;6.778;2022-12-18T09:10:31;5.33;;;3.57;;
10090;SDS011;5084;51.386;6.778;2022-12-18T09:12:57;5.80;;;3.70;;
10090;SDS011;5084;51.386;6.778;2022-12-18T09:15:23;4.80;;;3.43;;
10090;SDS011;5084;51.386;6.778;2022-12-18T09:17:49;4.70;;;4.13;;
10090;SDS011;5084;51.386;6.778;2022-12-18T09:20:18;6.47;;;4.00;;
10090;SDS011;5084;51.386;6.778;2022-12-18T09:22:44;7.13;;;4.10;;
10090;SDS011;5084;51.386;6.778;2022-12-18T09:25:10;5.53;;;3.20;;
10090;SDS011;5084;51.386;6.778;2022-12-18T09:27:36;5.07;;;3.93;;
10090;SDS011;5084;51.386;6.778;2022-12-18T09:30:04;4.83;;;3.67;;
10090;SDS011;5084;51.386;6.778;2022-12-18T09:32:30;6.07;;;3.93;;
10090;SDS011;5084;51.386;6.778;2022-12-18T09:34:56;4.93;;;3.60;;
10090;SDS011;5084;51.386;6.778;2022-12-18T09:37:22;4.40;;;3.30;;
10090;SDS011;5084;51.386;6.778;2022-12-18T09:39:48;6.13;;;4.00;;
10090;SDS011;5084;51.386;6.778;2022-12-18T09:42:21;4.30;;;3.27;;
10090;SDS011;5084;51.386;6.778;2022-12-18T09:44:51;3.93;;;3.37;;
10090;SDS011;5084;51.386;6.778;2022-12-18T09:47:23;6.63;;;3.53;;
10090;SDS011;5084;51.386;6.778;2022-12-18T09:49:50;5.43;;;3.70;;
10090;SDS011;5084;51.386;6.778;2022-12-18T09:52:37;4.23;;;3.43;;
10090;SDS011;5084;51.386;6.778;2022-12-18T09:55:09;5.93;;;3.90;;
10090;SDS011;5084;51.386;6.778;2022-12-18T09:57:38;4.53;;;3.03;;
10090;SDS011;5084;51.386;6.778;2022-12-18T10:00:24;4.23;;;3.70;;
10090;SDS011;5084;51.386;6.778;2022-12-18T10:02:51;4.77;;;4.00;;
10090;SDS011;5084;51.386;6.778;2022-12-18T10:05:29;4.17;;;3.20;;
10090;SDS011;5084;51.386;6.778;2022-12-18T10:08:17;3.70;;;3.23;;
10090;SDS011;5084;51.386;6.778;2022-12-18T10:10:48;5.63;;;4.60;;
10090;SDS011;5084;51.386;6.778;2022-12-18T10:13:31;4.80;;;3.20;;
10090;SDS011;5084;51.386;6.778;2022-12-18T10:16:03;5.93;;;3.37;;
10090;SDS011;5084;51.386;6.778;2022-12-18T10:21:11;4.50;;;3.43;;
10090;SDS011;5084;51.386;6.778;2022-12-18T10:23:57;4.83;;;3.43;;
10090;SDS011;5084;51.386;6.778;2022-12-18T10:26:28;5.17;;;3.60;;
10090;SDS011;5084;51.386;6.778;2022-12-18T10:28:54;6.17;;;4.03;;
10090;SDS011;5084;51.386;6.778;2022-12-18T10:31:22;6.37;;;3.73;;
10090;SDS011;5084;51.386;6.778;2022-12-18T10:33:49;12.80;;;3.73;;
10090;SDS011;5084;51.386;6.778;2022-12-18T10:36:15;5.37;;;3.63;;
10090;SDS011;5084;51.386;6.778;2022-12-18T10:38:41;5.07;;;3.70;;
10090;SDS011;5084;51.386;6.778;2022-12-18T10:43:47;6.03;;;3.80;;
10090;SDS011;5084;51.386;6.778;2022-12-18T10:46:19;5.03;;;3.87;;
10090;SDS011;5084;51.386;6.778;2022-12-18T10:51:26;4.87;;;3.90;;
10090;SDS011;5084;51.386;6.778;2022-12-18T10:56:21;4.47;;;3.03;;
10090;SDS011;5084;51.386;6.778;2022-12-18T10:59:11;5.17;;;3.60;;
10090;SDS011;5084;51.386;6.778;2022-12-18T11:01:52;7.90;;;4.13;;
10090;SDS011;5084;51.386;6.778;2022-12-18T11:04:26;6.03;;;4.23;;
10090;SDS011;5084;51.386;6.778;2022-12-18T11:06:59;4.90;;;3.37;;
10090;SDS011;5084;51.386;6.778;2022-12-18T11:09:27;5.57;;;3.50;;
10090;SDS011;5084;51.386;6.778;2022-12-18T11:11:54;5.17;;;3.80;;
10090;SDS011;5084;51.386;6.778;2022-12-18T11:14:22;3.93;;;3.27;;
10090;SDS011;5084;51.386;6.778;2022-12-18T11:16:48;5.30;;;3.47;;
10090;SDS011;5084;51.386;6.778;2022-12-18T11:21:48;4.27;;;3.50;;
10090;SDS011;5084;51.386;6.778;2022-12-18T11:24:19;4.60;;;3.40;;
10090;SDS011;5084;51.386;6.778;2022-12-18T11:26:45;3.83;;;3.30;;
10090;SDS011;5084;51.386;6.778;2022-12-18T11:29:16;5.67;;;3.57;;
10090;SDS011;5084;51.386;6.778;2022-12-18T11:31:42;5.20;;;3.83;;
10090;SDS011;5084;51.386;6.778;2022-12-18T11:34:12;5.53;;;3.53;;
10090;SDS011;5084;51.386;6.778;2022-12-18T11:36:44;4.83;;;3.33;;
10090;SDS011;5084;51.386;6.778;2022-12-18T11:39:21;4.30;;;3.90;;
10090;SDS011;5084;51.386;6.778;2022-12-18T11:41:52;6.30;;;3.97;;
10090;SDS011;5084;51.386;6.778;2022-12-18T11:44:38;7.17;;;4.13;;
10090;SDS011;5084;51.386;6.778;2022-12-18T11:47:09;6.03;;;4.37;;
10090;SDS011;5084;51.386;6.778;2022-12-18T11:49:38;6.63;;;3.27;;
10090;SDS011;5084;51.386;6.778;2022-12-18T11:52:21;4.37;;;3.67;;
10090;SDS011;5084;51.386;6.778;2022-12-18T11:54:52;4.47;;;3.43;;
10090;SDS011;5084;51.386;6.778;2022-12-18T12:00:08;4.80;;;3.60;;
10090;SDS011;5084;51.386;6.778;2022-12-18T12:07:34;9.10;;;3.90;;
10090;SDS011;5084;51.386;6.778;2022-12-18T12:15:17;5.27;;;3.60;;
10090;SDS011;5084;51.386;6.778;2022-12-18T12:18:05;5.43;;;4.23;;
10090;SDS011;5084;51.386;6.778;2022-12-18T12:23:19;5.30;;;4.40;;
10090;SDS011;5084;51.386;6.778;2022-12-18T12:26:04;5.63;;;4.27;;
10090;SDS011;5084;51.386;6.778;2022-12-18T12:31:04;5.80;;;3.87;;
10090;SDS011;5084;51.386;6.778;2022-12-18T12:33:35;7.30;;;4.30;;
10090;SDS011;5084;51.386;6.778;2022-12-18T12:38:35;5.53;;;4.07;;
10090;SDS011;5084;51.386;6.778;2022-12-18T12:41:06;5.83;;;4.77;;
10090;SDS011;5084;51.386;6.778;2022-12-18T12:43:53;4.73;;;4.00;;
10090;SDS011;5084;51.386;6.778;2022-12-18T12:46:21;5.43;;;4.67;;
10090;SDS011;5084;51.386;6.778;2022-12-18T12:48:49;4.60;;;3.80;;
10090;SDS011;5084;51.386;6.778;2022-12-18T12:53:45;6.07;;;4.90;;
10090;SDS011;5084;51.386;6.778;2022-12-18T12:56:11;7.53;;;4.43;;
10090;SDS011;5084;51.386;6.778;2022-12-18T12:58:46;5.37;;;4.00;;
10090;SDS011;5084;51.386;6.778;2022-12-18T13:06:18;8.27;;;4.90;;
10090;SDS011;5084;51.386;6.778;2022-12-18T13:08:53;6.97;;;4.80;;
10090;SDS011;5084;51.386;6.778;2022-12-18T13:11:29;5.20;;;4.10;;
10090;SDS011;5084;51.386;6.778;2022-12-18T13:14:22;5.90;;;4.20;;
10090;SDS011;5084;51.386;6.778;2022-12-18T13:16:49;7.83;;;5.30;;
10090;SDS011;5084;51.386;6.778;2022-12-18T13:19:21;6.30;;;4.87;;
10090;SDS011;5084;51.386;6.778;2022-12-18T13:21:52;7.50;;;4.90;;
10090;SDS011;5084;51.386;6.778;2022-12-18T13:24:26;7.63;;;4.90;;
10090;SDS011;5084;51.386;6.778;2022-12-18T13:26:54;6.60;;;5.37;;
10090;SDS011;5084;51.386;6.778;2022-12-18T13:29:40;7.73;;;5.10;;
10090;SDS011;5084;51.386;6.778;2022-12-18T13:32:17;6.57;;;4.87;;
10090;SDS011;5084;51.386;6.778;2022-12-18T13:34:45;7.27;;;5.23;;
10090;SDS011;5084;51.386;6.778;2022-12-18T13:37:35;7.10;;;4.70;;
10090;SDS011;5084;51.386;6.778;2022-12-18T13:40:24;7.60;;;5.37;;
10090;SDS011;5084;51.386;6.778;2022-12-18T13:42:51;10.73;;;5.57;;
10090;SDS011;5084;51.386;6.778;2022-12-18T13:45:40;7.03;;;6.00;;
10090;SDS011;5084;51.386;6.778;2022-12-18T13:48:14;8.40;;;6.10;;
10090;SDS011;5084;51.386;6.778;2022-12-18T13:50:40;7.93;;;5.33;;
10090;SDS011;5084;51.386;6.778;2022-12-18T13:53:06;5.60;;;4.93;;
10090;SDS011;5084;51.386;6.778;2022-12-18T13:55:32;6.80;;;4.87;;
10090;SDS011;5084;51.386;6.778;2022-12-18T13:58:05;7.90;;;5.87;;
10090;SDS011;5084;51.386;6.778;2022-12-18T14:00:31;9.30;;;5.17;;
10090;SDS011;5084;51.386;6.778;2022-12-18T14:02:58;9.53;;;6.50;;
10090;SDS011;5084;51.386;6.778;2022-12-18T14:05:28;8.07;;;5.50;;
10090;SDS011;5084;51.386;6.778;2022-12-18T14:07:55;9.27;;;5.83;;
10090;SDS011;5084;51.386;6.778;2022-12-18T14:10:21;7.53;;;6.23;;
10090;SDS011;5084;51.386;6.778;2022-12-18T14:12:48;7.37;;;5.70;;
10090;SDS011;5084;51.386;6.778;2022-12-18T14:17:54;9.63;;;6.27;;
10090;SDS011;5084;51.386;6.778;2022-12-18T14:20:21;9.63;;;7.27;;
10090;SDS011;5084;51.386;6.778;2022-12-18T14:22:48;8.87;;;5.50;;
10090;SDS011;5084;51.386;6.778;2022-12-18T14:27:44;8.37;;;6.43;;
10090;SDS011;5084;51.386;6.778;2022-12-18T14:33:08;9.97;;;6.77;;
10090;SDS011;5084;51.386;6.778;2022-12-18T14:35:36;8.53;;;6.00;;
10090;SDS011;5084;51.386;6.778;2022-12-18T14:40:41;10.97;;;6.10;;
10090;SDS011;5084;51.386;6.778;2022-12-18T14:43:09;9.77;;;6.33;;
10090;SDS011;5084;51.386;6.778;2022-12-18T14:45:36;8.57;;;6.40;;
10090;SDS011;5084;51.386;6.778;2022-12-18T14:48:06;8.37;;;6.10;;
10090;SDS011;5084;51.386;6.778;2022-12-18T14:50:32;8.47;;;5.90;;
10090;SDS011;5084;51.386;6.778;2022-12-18T14:52:59;7.93;;;6.27;;
10090;SDS011;5084;51.386;6.778;2022-12-18T14:55:25;9.40;;;6.27;;
10090;SDS011;5084;51.386;6.778;2022-12-18T14:57:52;7.83;;;5.90;;
10090;SDS011;5084;51.386;6.778;2022-12-18T15:00:21;10.00;;;6.90;;
10090;SDS011;5084;51.386;6.778;2022-12-18T15:02:48;8.10;;;6.80;;
10090;SDS011;5084;51.386;6.778;2022-12-18T15:07:46;11.57;;;6.73;;
10090;SDS011;5084;51.386;6.778;2022-12-18T15:15:53;10.00;;;6.47;;
10090;SDS011;5084;51.386;6.778;2022-12-18T15:20:53;8.97;;;6.73;;
10090;SDS011;5084;51.386;6.778;2022-12-18T15:25:56;8.10;;;6.03;;
10090;SDS011;5084;51.386;6.778;2022-12-18T15:28:25;9.23;;;6.93;;
10090;SDS011;5084;51.386;6.778;2022-12-18T15:33:44;10.33;;;6.67;;
10090;SDS011;5084;51.386;6.778;2022-12-18T15:36:12;10.03;;;7.07;;
10090;SDS011;5084;51.386;6.778;2022-12-18T15:38:38;8.43;;;6.43;;
10090;SDS011;5084;51.386;6.778;2022-12-18T15:41:05;9.63;;;6.90;;
10090;SDS011;5084;51.386;6.778;2022-12-18T15:43:31;9.20;;;7.07;;
10090;SDS011;5084;51.386;6.778;2022-12-18T15:46:11;12.93;;;7.60;;
10090;SDS011;5084;51.386;6.778;2022-12-18T15:48:41;11.70;;;7.43;;
10090;SDS011;5084;51.386;6.778;2022-12-18T15:53:39;10.37;;;6.43;;
10090;SDS011;5084;51.386;6.778;2022-12-18T15:56:08;10.97;;;7.27;;
10090;SDS011;5084;51.386;6.778;2022-12-18T15:58:54;11.43;;;7.50;;
10090;SDS011;5084;51.386;6.778;2022-12-18T16:01:21;9.40;;;6.93;;
10090;SDS011;5084;51.386;6.778;2022-12-18T16:03:48;13.25;;;9.25;;
10090;SDS011;5084;51.386;6.778;2022-12-18T16:06:14;11.87;;;8.63;;
10090;SDS011;5084;51.386;6.778;2022-12-18T16:08:40;13.00;;;8.47;;
10090;SDS011;5084;51.386;6.778;2022-12-18T16:11:08;10.50;;;7.50;;
10090;SDS011;5084;51.386;6.778;2022-12-18T16:13:42;10.90;;;7.63;;
10090;SDS011;5084;51.386;6.778;2022-12-18T16:16:08;10.90;;;7.50;;
10090;SDS011;5084;51.386;6.778;2022-12-18T16:18:34;9.87;;;7.30;;
10090;SDS011;5084;51.386;6.778;2022-12-18T16:21:00;10.73;;;7.90;;
10090;SDS011;5084;51.386;6.778;2022-12-18T16:23:26;10.60;;;7.40;;
10090;SDS011;5084;51.386;6.778;2022-12-18T16:25:52;11.33;;;7.53;;
10090;SDS011;5084;51.386;6.778;2022-12-18T16:28:18;10.40;;;7.47;;
10090;SDS011;5084;51.386;6.778;2022-12-18T16:30:44;11.07;;;7.60;;
10090;SDS011;5084;51.386;6.778;2022-12-18T16:33:11;11.03;;;8.20;;
10090;SDS011;5084;51.386;6.778;2022-12-18T16:35:37;10.40;;;6.87;;
10090;SDS011;5084;51.386;6.778;2022-12-18T16:38:03;12.07;;;7.40;;
10090;SDS011;5084;51.386;6.778;2022-12-18T16:40:30;10.33;;;7.27;;
10090;SDS011;5084;51.386;6.778;2022-12-18T16:42:57;10.37;;;7.00;;
10090;SDS011;5084;51.386;6.778;2022-12-18T16:45:23;9.83;;;7.53;;
10090;SDS011;5084;51.386;6.778;2022-12-18T16:47:57;10.50;;;7.77;;